Live Webcam Brienzersee more information Live Webcam Brienzersee


Besuchen Sie unsere anderen Wetter Stationen:

Template documentation
and downloads

And another site



METAR-Meldungen aus der Umgebung

   
EBBR - Brussels International Airport, Belgium
Entfernung von der Station bis: W 14 km
Aktualisierung: 25-02-2018 23:50
Klar  
Klar  
   Wind: ONO 18.5 km/h
Wind: ONO 18.5 km/h
Temperatur: -4°C
Gefühlt: -10°C
Taupunkt: -9°C
Luftfeuchte: 69%
Luftdruck: 1028 hPa
Sichtbarkeit: More than 10 km
Bewölkung: Klar ft
EBBR 252250Z 07010KT CAVOK M04/M09 Q1028 NOSIG
EBBE - Beauvechain (Bevekom), Belgium
Entfernung von der Station bis: SSO 17 km
Aktualisierung: 25-02-2018 23:55
Klar  
Klar  
   Wind: NO 22.2 km/h
Wind: NO 22.2 km/h
Temperatur: -4°C
Gefühlt: -11°C
Taupunkt: -11°C
Luftfeuchte: 59%
Luftdruck: 1027 hPa
Bewölkt: Clear
Sichtbarkeit: More than 10 km
Bewölkung: Klar ft
EBBE 252255Z AUTO 05012KT 9999 NCD M04/M11 Q1027 BLU
EBDT - Schaffen, Belgium
Entfernung von der Station bis: ONO 29 km
Aktualisierung: 25-02-2018 23:55
Klar  
Klar  
   Wind: NO 20.4 km/h
Wind: NO 20.4 km/h
Temperatur: -4°C
Gefühlt: -11°C
Taupunkt: -11°C
Luftfeuchte: 59%
Luftdruck: 1028 hPa
Bewölkt: Clear
Sichtbarkeit: More than 10 km
Bewölkung: Klar ft
EBDT 252255Z AUTO 05011KT 9999 NCD M04/M11 Q1028 BLU
EBAW - Antwerp/Deurne, Belgium
Entfernung von der Station bis: NNW 38 km
Aktualisierung: 25-02-2018 23:50
Klar  
Klar  
   Wind: ONO 20.4 km/h
Wind: ONO 20.4 km/h
Temperatur: -3°C
Gefühlt: -9°C
Taupunkt: -10°C
Luftfeuchte: 59%
Luftdruck: 1029 hPa
Sichtbarkeit: More than 10 km
Bewölkung: Klar ft
EBAW 252250Z 06011KT 030V090 CAVOK M03/M10 Q1029 NOSIG
EBCI - Charleroi/Gosselies, Belgium
Entfernung von der Station bis: SSW 51 km
Aktualisierung: 25-02-2018 23:50
Klar  
Klar  
   Wind: NO 22.2 km/h
Wind: NO 22.2 km/h
Temperatur: -4°C
Gefühlt: -11°C
Taupunkt: -11°C
Luftfeuchte: 59%
Luftdruck: 1026 hPa
Sichtbarkeit: More than 10 km
Bewölkung: Klar ft
EBCI 252250Z 04012KT CAVOK M04/M11 Q1026 NOSIG
EBLG - Bierset/Liege, Belgium
Entfernung von der Station bis: OSO 60 km
Aktualisierung: 25-02-2018 23:50
Klar  
Klar  
   Wind: NO 27.8 km/h
Wind: NO 27.8 km/h
Temperatur: -5°C
Gefühlt: -13°C
Taupunkt: -11°C
Luftfeuchte: 63%
Luftdruck: 1026 hPa
Sichtbarkeit: More than 10 km
Bewölkung: Klar ft
EBLG 252250Z 05015KT CAVOK M05/M11 Q1026 NOSIG

Script entwickelt von  Saratoga-weather.org Angepasst für das Template von  Weerstation Leuven